Maida Hill, United Kingdom
Current Conditions -  °F | °C
As of 2:20 PM on Thursday 18 Dec 2014 (Local Time) from EGLC Reporting Station
Broken Clouds Broken Clouds  
Wind Chill: 57°   Ceiling: 1600
Heat Index: 57°   Visibility: 6mi
Dew Point: 50°   Wind: 21mph
Humidity: 77%   Direction: 250°WSW
Pressure: 29.8"   Gusts: 35mph
Location:  51.52°N, 0.18°W
Report Text: EGLC 181420Z 25018G30KT 9999 BKN016 14/10 Q1009
Loading
Personal Weather Stations






























Interactive Weather Map New forecast layout! Learn more

10-Day Weather Forecast

Advertisements
Track Severe Weather on mobile